createdAt,value
2022-11-04T00:01:13.964Z,86.17
2022-11-04T00:04:19.340Z,86.12
2022-11-04T00:07:41.135Z,86.02
2022-11-04T00:11:02.427Z,86.02
2022-11-04T00:14:06.865Z,86.14
2022-11-04T00:17:20.019Z,86.34
2022-11-04T00:20:41.604Z,86.48
2022-11-04T00:24:03.343Z,86.78
2022-11-04T00:27:24.524Z,86.82
2022-11-04T00:30:27.389Z,86.76
2022-11-04T00:33:30.063Z,86.97
2022-11-04T00:36:32.977Z,87.07
2022-11-04T00:39:35.692Z,86.86
2022-11-04T00:42:39.323Z,87.08
2022-11-04T00:45:42.784Z,86.74
2022-11-04T00:48:46.752Z,86.89
2022-11-04T00:51:49.355Z,86.98
2022-11-04T00:54:52.317Z,87.23
2022-11-04T00:57:57.346Z,87.78
2022-11-04T01:01:00.526Z,87.54
2022-11-04T01:04:03.203Z,88.01
2022-11-04T01:07:06.784Z,88.07
2022-11-04T01:10:09.915Z,88.76
2022-11-04T01:13:12.831Z,88.84
2022-11-04T01:16:15.542Z,88.87
2022-11-04T01:19:18.751Z,88.89
2022-11-04T01:22:21.399Z,88.76
2022-11-04T01:25:24.274Z,88.83
2022-11-04T01:28:26.942Z,88.91
2022-11-04T01:31:31.514Z,88.81
2022-11-04T01:34:35.970Z,88.81
2022-11-04T01:37:41.935Z,88.46
2022-11-04T01:40:44.648Z,88.47
2022-11-04T01:43:56.158Z,88.50
2022-11-04T01:46:59.070Z,88.40
2022-11-04T01:50:08.982Z,88.34
2022-11-04T01:53:17.910Z,88.39
2022-11-04T01:56:21.483Z,88.18
2022-11-04T01:59:34.346Z,88.33
2022-11-04T02:02:46.842Z,88.11
2022-11-04T02:05:51.204Z,88.27
2022-11-04T02:08:53.736Z,88.23
2022-11-04T02:12:15.326Z,88.28
2022-11-04T02:15:27.785Z,88.51
2022-11-04T02:18:49.391Z,88.42
2022-11-04T02:22:09.528Z,88.60
2022-11-04T02:25:31.328Z,88.46
2022-11-04T02:28:39.702Z,88.56
2022-11-04T02:32:17.172Z,88.53
2022-11-04T02:35:41.189Z,88.63
2022-11-04T02:39:17.602Z,88.67
2022-11-04T02:42:37.580Z,88.68
2022-11-04T02:45:45.088Z,88.87
2022-11-04T02:49:00.786Z,89.04
2022-11-04T02:52:17.823Z,89.10
2022-11-04T02:55:32.157Z,89.32
2022-11-04T02:58:43.285Z,89.87
2022-11-04T03:01:48.128Z,90.10
2022-11-04T03:04:52.765Z,90.22
2022-11-04T03:07:59.090Z,90.04
2022-11-04T03:11:24.595Z,90.12
2022-11-04T03:14:39.704Z,90.08
2022-11-04T03:18:02.519Z,90.06
2022-11-04T03:21:11.762Z,90.24
2022-11-04T03:24:14.896Z,90.32
2022-11-04T03:27:20.388Z,90.31
2022-11-04T03:30:24.115Z,90.16
2022-11-04T03:33:29.521Z,90.32
2022-11-04T03:36:32.404Z,90.47
2022-11-04T03:39:35.185Z,90.40
2022-11-04T03:42:44.227Z,90.57
2022-11-04T03:45:47.270Z,90.61
2022-11-04T03:48:53.397Z,90.77
2022-11-04T03:51:56.332Z,90.32
2022-11-04T03:54:59.305Z,90.70
2022-11-04T03:58:48.287Z,90.66
2022-11-04T04:02:00.912Z,90.15
2022-11-04T04:05:40.193Z,89.89
2022-11-04T04:08:50.184Z,90.18
2022-11-04T04:12:00.190Z,90.35
2022-11-04T04:15:11.313Z,90.26
2022-11-04T04:18:17.870Z,90.55
2022-11-04T04:21:24.050Z,90.54
2022-11-04T04:24:51.785Z,90.26
2022-11-04T04:27:58.437Z,90.26
2022-11-04T04:31:02.461Z,90.64
2022-11-04T04:34:05.842Z,91.03
2022-11-04T04:37:25.965Z,90.88
2022-11-04T04:40:49.910Z,91.06
2022-11-04T04:44:13.057Z,91.36
2022-11-04T04:47:23.585Z,91.37
2022-11-04T04:50:31.074Z,91.40
2022-11-04T04:53:33.688Z,91.29
2022-11-04T04:56:36.758Z,91.47
2022-11-04T04:59:39.498Z,91.51
2022-11-04T05:02:43.004Z,91.65
2022-11-04T05:05:45.590Z,91.73
2022-11-04T05:08:48.519Z,91.82
2022-11-04T05:11:51.514Z,91.62
2022-11-04T05:14:54.488Z,91.78
2022-11-04T05:17:59.881Z,91.81
2022-11-04T05:21:12.384Z,91.51
2022-11-04T05:24:15.287Z,91.91
2022-11-04T05:27:18.227Z,91.47
2022-11-04T05:30:20.831Z,91.07
2022-11-04T05:33:24.766Z,90.74
2022-11-04T05:36:27.529Z,90.73
2022-11-04T05:39:30.502Z,91.66
2022-11-04T05:42:33.138Z,91.55
2022-11-04T05:45:37.311Z,91.18
2022-11-04T05:48:40.738Z,91.23
2022-11-04T05:51:44.712Z,91.08
2022-11-04T05:54:47.673Z,91.16
2022-11-04T05:57:50.651Z,90.70
2022-11-04T06:00:53.146Z,90.95
2022-11-04T06:03:57.607Z,90.92
2022-11-04T06:07:00.578Z,90.64
2022-11-04T06:10:04.322Z,90.73
2022-11-04T06:13:06.891Z,90.58
2022-11-04T06:16:09.740Z,90.38
2022-11-04T06:19:15.934Z,90.30
2022-11-04T06:22:19.972Z,90.27
2022-11-04T06:25:22.616Z,90.09
2022-11-04T06:28:25.520Z,89.57
2022-11-04T06:31:28.155Z,89.36
2022-11-04T06:34:30.987Z,88.90
2022-11-04T06:37:33.766Z,89.01
2022-11-04T06:40:36.595Z,88.99
2022-11-04T06:43:39.319Z,88.73
2022-11-04T06:46:43.451Z,88.69
2022-11-04T06:49:46.014Z,88.20
2022-11-04T06:52:48.790Z,87.97
2022-11-04T06:55:52.932Z,88.09
2022-11-04T06:58:57.331Z,88.23
2022-11-04T07:02:00.142Z,88.39
2022-11-04T07:05:07.758Z,88.71
2022-11-04T07:08:11.097Z,88.53
2022-11-04T07:11:17.251Z,88.18
2022-11-04T07:14:19.851Z,87.86
2022-11-04T07:17:22.660Z,87.78
2022-11-04T07:20:25.757Z,87.84
2022-11-04T07:23:28.670Z,87.83
2022-11-04T07:26:33.692Z,87.59
2022-11-04T07:29:37.377Z,88.13
2022-11-04T07:32:40.031Z,88.95
2022-11-04T07:35:43.543Z,89.38
2022-11-04T07:38:46.823Z,89.95
2022-11-04T07:41:49.713Z,89.97
2022-11-04T07:44:52.331Z,89.65
2022-11-04T07:47:55.236Z,90.10
2022-11-04T07:50:59.869Z,90.44
2022-11-04T07:54:02.765Z,89.62
2022-11-04T07:57:05.826Z,90.13
2022-11-04T08:00:09.707Z,90.29
2022-11-04T08:03:16.494Z,90.11
2022-11-04T08:06:21.563Z,90.54
2022-11-04T08:09:24.419Z,90.40
2022-11-04T08:12:28.019Z,90.85
2022-11-04T08:15:30.681Z,90.58
2022-11-04T08:18:34.299Z,91.05
2022-11-04T08:21:36.930Z,91.34
2022-11-04T08:24:40.770Z,92.06
2022-11-04T08:27:43.357Z,93.80
2022-11-04T08:31:05.823Z,94.72
2022-11-04T08:34:08.841Z,94.14
2022-11-04T08:37:16.490Z,94.19
2022-11-04T08:40:19.173Z,94.53
2022-11-04T08:43:22.131Z,93.08
2022-11-04T08:46:25.781Z,94.01
2022-11-04T08:49:28.632Z,94.82
2022-11-04T08:52:31.786Z,94.92
2022-11-04T08:55:35.349Z,93.74
2022-11-04T08:58:38.025Z,94.08
2022-11-04T09:01:42.748Z,94.52
2022-11-04T09:04:45.417Z,95.13
2022-11-04T09:07:48.348Z,95.40
2022-11-04T09:10:50.909Z,95.12
2022-11-04T09:13:53.869Z,95.64
2022-11-04T09:16:56.499Z,94.50
2022-11-04T09:19:59.546Z,93.84
2022-11-04T09:23:02.157Z,94.37
2022-11-04T09:26:14.571Z,94.96
2022-11-04T09:29:17.235Z,95.29
2022-11-04T09:32:20.163Z,95.65
2022-11-04T09:35:22.882Z,95.10
2022-11-04T09:38:26.349Z,95.29
2022-11-04T09:41:55.557Z,95.66
2022-11-04T09:45:25.536Z,94.98
2022-11-04T09:48:30.865Z,94.88
2022-11-04T09:51:53.922Z,94.97
2022-11-04T09:55:12.883Z,95.43
2022-11-04T09:58:16.074Z,95.54
2022-11-04T10:01:18.884Z,95.70
2022-11-04T10:04:44.955Z,95.56
2022-11-04T10:07:59.538Z,95.49
2022-11-04T10:11:14.910Z,95.64
2022-11-04T10:14:53.563Z,95.68
2022-11-04T10:18:38.533Z,95.17
2022-11-04T10:22:04.266Z,95.30
2022-11-04T10:25:23.231Z,94.92
2022-11-04T10:28:33.098Z,95.21
2022-11-04T10:31:39.008Z,94.29
2022-11-04T10:34:55.251Z,94.49
2022-11-04T10:38:12.387Z,94.45
2022-11-04T10:41:24.179Z,94.65
2022-11-04T10:44:29.129Z,94.63
2022-11-04T10:47:47.092Z,94.26
2022-11-04T10:50:56.484Z,93.61
2022-11-04T10:54:01.521Z,93.06
2022-11-04T10:57:09.193Z,93.35
2022-11-04T11:00:32.720Z,93.51
2022-11-04T11:03:35.703Z,93.64
2022-11-04T11:06:39.014Z,93.77
2022-11-04T11:09:41.933Z,93.65
2022-11-04T11:12:52.326Z,93.02
2022-11-04T11:16:28.363Z,93.61
2022-11-04T11:19:47.736Z,93.46
2022-11-04T11:22:52.375Z,93.93
2022-11-04T11:25:55.224Z,93.82
2022-11-04T11:29:02.646Z,93.56
2022-11-04T11:32:44.358Z,93.89
2022-11-04T11:36:13.016Z,93.64
2022-11-04T11:39:22.112Z,93.94
2022-11-04T11:42:26.453Z,92.90
2022-11-04T11:45:30.701Z,91.99
2022-11-04T11:48:41.214Z,92.51
2022-11-04T11:51:43.838Z,92.32
2022-11-04T11:54:49.795Z,92.02
2022-11-04T12:01:35.660Z,91.37
2022-11-04T12:11:53.809Z,92.01
2022-11-04T12:15:29.083Z,92.06
2022-11-04T12:18:50.795Z,91.52
2022-11-04T12:22:11.611Z,91.25
2022-11-04T12:25:31.371Z,91.63
2022-11-04T12:28:59.838Z,91.40
2022-11-04T12:32:48.572Z,91.69
2022-11-04T12:36:22.809Z,91.10
2022-11-04T12:39:34.683Z,91.73
2022-11-04T12:42:51.608Z,92.18
2022-11-04T12:46:17.447Z,91.60
2022-11-04T12:49:27.925Z,91.29
2022-11-04T12:52:36.720Z,91.55
2022-11-04T12:55:56.642Z,91.74
2022-11-04T12:59:08.962Z,91.92
2022-11-04T13:02:29.859Z,92.01
2022-11-04T13:05:41.717Z,92.19
2022-11-04T13:08:52.497Z,91.73
2022-11-04T13:12:24.299Z,91.48
2022-11-04T13:15:31.124Z,91.82
2022-11-04T13:18:37.894Z,92.76
2022-11-04T13:21:40.565Z,92.35
2022-11-04T13:24:51.619Z,92.48
2022-11-04T13:27:54.697Z,92.18
2022-11-04T13:31:35.889Z,91.84
2022-11-04T13:35:24.142Z,91.45
2022-11-04T13:38:34.361Z,90.88
2022-11-04T13:41:59.152Z,91.77
2022-11-04T13:45:17.286Z,91.68
2022-11-04T13:48:27.241Z,91.67
2022-11-04T13:51:43.860Z,92.40
2022-11-04T13:54:57.933Z,92.47
2022-11-04T13:58:03.573Z,92.07
2022-11-04T14:01:12.887Z,92.75
2022-11-04T14:04:30.279Z,93.15
2022-11-04T14:08:13.632Z,92.92
2022-11-04T14:11:16.529Z,92.90
2022-11-04T14:14:20.103Z,92.96
2022-11-04T14:17:34.979Z,92.04
2022-11-04T14:20:37.612Z,92.43
2022-11-04T14:23:43.769Z,92.72
2022-11-04T14:26:48.711Z,92.56
2022-11-04T14:29:53.432Z,92.23
2022-11-04T14:33:04.220Z,91.63
2022-11-04T14:36:22.381Z,92.55
2022-11-04T14:39:31.518Z,92.56
2022-11-04T14:42:52.932Z,92.98
2022-11-04T14:45:57.337Z,92.95
2022-11-04T14:49:02.421Z,92.91
2022-11-04T14:52:38.819Z,92.83
2022-11-04T14:55:41.826Z,93.34
2022-11-04T14:59:03.451Z,93.08
2022-11-04T15:02:16.337Z,92.40
2022-11-04T15:05:28.537Z,92.50
2022-11-04T15:08:35.319Z,92.53
2022-11-04T15:11:59.127Z,92.48
2022-11-04T15:15:02.187Z,92.10
2022-11-04T15:18:17.113Z,91.16
2022-11-04T15:21:20.306Z,90.76
2022-11-04T15:24:23.563Z,89.96
2022-11-04T15:27:30.110Z,90.09
2022-11-04T15:30:32.800Z,89.92
2022-11-04T15:33:41.195Z,88.93
2022-11-04T15:36:44.688Z,88.73
2022-11-04T15:39:50.121Z,87.04
2022-11-04T15:42:54.285Z,86.09
2022-11-04T15:45:57.434Z,86.15
2022-11-04T15:49:05.996Z,85.41
2022-11-04T15:52:14.876Z,84.89
2022-11-04T15:55:22.747Z,85.17
2022-11-04T15:58:25.916Z,85.11
2022-11-04T16:01:29.495Z,83.92
2022-11-04T16:04:33.823Z,83.79
2022-11-04T16:07:43.301Z,84.04
2022-11-04T16:10:46.619Z,83.52
2022-11-04T16:13:49.289Z,82.85
2022-11-04T16:16:54.212Z,82.66
2022-11-04T16:20:06.403Z,82.04
2022-11-04T16:23:18.499Z,81.72
2022-11-04T16:26:27.611Z,82.06
2022-11-04T16:29:33.960Z,82.04
2022-11-04T16:32:45.238Z,81.65
2022-11-04T16:35:48.172Z,82.48
2022-11-04T16:39:00.224Z,81.94
2022-11-04T16:42:04.557Z,81.94
2022-11-04T16:45:11.824Z,81.83
2022-11-04T16:48:18.362Z,81.41
2022-11-04T16:51:23.088Z,82.04
2022-11-04T16:54:27.682Z,82.05
2022-11-04T16:57:30.595Z,81.91
2022-11-04T17:00:34.498Z,81.49
2022-11-04T17:03:37.522Z,82.69
2022-11-04T17:06:41.976Z,84.04
2022-11-04T17:09:45.502Z,85.19
2022-11-04T17:12:49.337Z,84.27
2022-11-04T17:15:52.436Z,83.96
2022-11-04T17:18:55.810Z,83.91
2022-11-04T17:22:00.847Z,84.98
2022-11-04T17:25:16.158Z,86.05
2022-11-04T17:28:19.348Z,85.83
2022-11-04T17:31:23.047Z,87.12
2022-11-04T17:34:27.381Z,87.12
2022-11-04T17:37:30.817Z,86.71
2022-11-04T17:40:53.970Z,86.51
2022-11-04T17:44:03.553Z,87.88
2022-11-04T17:47:06.331Z,87.84
2022-11-04T17:50:10.177Z,87.18
2022-11-04T17:53:14.039Z,89.90
2022-11-04T17:56:20.479Z,90.51
2022-11-04T17:59:24.095Z,90.48
2022-11-04T18:02:28.683Z,91.71
2022-11-04T18:05:31.881Z,92.97
2022-11-04T18:08:34.968Z,94.09
2022-11-04T18:11:57.723Z,94.26
2022-11-04T18:15:00.346Z,94.53
2022-11-04T18:18:03.479Z,94.16
2022-11-04T18:21:09.588Z,93.78
2022-11-04T18:24:13.663Z,93.21
2022-11-04T18:27:16.560Z,92.62
2022-11-04T18:30:21.063Z,92.84
2022-11-04T18:33:25.231Z,93.03
2022-11-04T18:36:29.670Z,93.35
2022-11-04T18:39:33.763Z,93.55
2022-11-04T18:42:37.088Z,93.20
2022-11-04T18:45:39.777Z,92.59
2022-11-04T18:48:43.399Z,92.77
2022-11-04T18:51:46.531Z,91.61
2022-11-04T18:54:49.716Z,91.05
2022-11-04T18:57:56.021Z,90.77
2022-11-04T19:01:00.145Z,90.36
2022-11-04T19:04:04.355Z,90.79
2022-11-04T19:07:07.730Z,91.89
2022-11-04T19:10:12.183Z,91.35
2022-11-04T19:13:18.485Z,92.80
2022-11-04T19:16:22.173Z,93.20
2022-11-04T19:19:28.636Z,92.87
2022-11-04T19:22:31.632Z,93.41
2022-11-04T19:25:34.671Z,93.30
2022-11-04T19:28:48.010Z,91.99
2022-11-04T19:31:57.491Z,92.51
2022-11-04T19:35:00.703Z,92.32
2022-11-04T19:38:04.886Z,91.38
2022-11-04T19:41:31.470Z,91.44
2022-11-04T19:44:34.837Z,90.40
2022-11-04T19:47:37.964Z,91.38
2022-11-04T19:50:44.538Z,91.55
2022-11-04T19:53:47.556Z,91.94
2022-11-04T19:56:50.960Z,91.83
2022-11-04T19:59:54.077Z,91.86
2022-11-04T20:02:57.545Z,91.36
2022-11-04T20:06:00.891Z,91.71
2022-11-04T20:09:06.459Z,91.84
2022-11-04T20:12:28.613Z,91.39
2022-11-04T20:15:31.531Z,91.69
2022-11-04T20:18:37.898Z,90.74
2022-11-04T20:21:40.776Z,90.81
2022-11-04T20:24:44.207Z,91.00
2022-11-04T20:27:47.187Z,90.56
2022-11-04T20:30:50.732Z,90.08
2022-11-04T20:33:54.531Z,90.48
2022-11-04T20:37:01.381Z,90.09
2022-11-04T20:40:05.605Z,89.68
2022-11-04T20:43:09.038Z,89.59
2022-11-04T20:46:14.781Z,89.61
2022-11-04T20:49:23.656Z,89.29
2022-11-04T20:52:28.247Z,89.35
2022-11-04T20:55:31.966Z,88.26
2022-11-04T20:58:41.996Z,88.50
2022-11-04T21:01:46.948Z,88.48
2022-11-04T21:04:55.056Z,88.12
2022-11-04T21:07:58.860Z,88.37
2022-11-04T21:11:02.090Z,88.32
2022-11-04T21:14:14.699Z,87.66
2022-11-04T21:17:18.975Z,87.63
2022-11-04T21:20:22.360Z,87.57
2022-11-04T21:23:25.656Z,87.52
2022-11-04T21:26:31.358Z,87.24
2022-11-04T21:29:38.191Z,87.14
2022-11-04T21:32:47.331Z,86.92
2022-11-04T21:35:51.003Z,86.07
2022-11-04T21:38:54.379Z,86.78
2022-11-04T21:41:57.046Z,86.47
2022-11-04T21:44:59.900Z,86.25
2022-11-04T21:48:05.058Z,85.78
2022-11-04T21:51:19.663Z,85.86
2022-11-04T21:54:22.358Z,86.04
2022-11-04T21:57:28.664Z,85.10
2022-11-04T22:00:31.438Z,84.86
2022-11-04T22:03:34.975Z,84.77
2022-11-04T22:06:37.666Z,84.03
2022-11-04T22:09:40.634Z,84.04
2022-11-04T22:12:48.480Z,84.33
2022-11-04T22:16:00.808Z,84.66
2022-11-04T22:19:06.004Z,85.26
2022-11-04T22:22:08.902Z,85.86
2022-11-04T22:25:12.779Z,86.73
2022-11-04T22:28:15.960Z,86.68
2022-11-04T22:31:23.176Z,87.73
2022-11-04T22:34:26.369Z,87.82
2022-11-04T22:37:28.892Z,88.37
2022-11-04T22:40:31.848Z,88.31
2022-11-04T22:43:34.684Z,88.59
2022-11-04T22:46:37.690Z,88.57
2022-11-04T22:49:40.241Z,88.31
2022-11-04T22:52:43.196Z,88.98
2022-11-04T22:55:45.692Z,88.87
2022-11-04T22:58:49.143Z,89.17
2022-11-04T23:01:51.737Z,89.05
2022-11-04T23:04:54.739Z,88.84
2022-11-04T23:08:00.359Z,88.83
2022-11-04T23:11:29.009Z,88.68
2022-11-04T23:14:43.880Z,88.66
2022-11-04T23:18:05.170Z,89.66
2022-11-04T23:21:38.115Z,89.85
2022-11-04T23:24:59.782Z,90.16
2022-11-04T23:28:20.923Z,89.64
2022-11-04T23:31:25.292Z,89.34
2022-11-04T23:34:46.603Z,89.32
2022-11-04T23:37:49.423Z,89.55
2022-11-04T23:41:14.055Z,89.08
2022-11-04T23:44:36.851Z,89.52
2022-11-04T23:48:02.963Z,89.15
2022-11-04T23:51:24.856Z,89.17
2022-11-04T23:54:45.954Z,89.35
2022-11-04T23:58:07.494Z,90.00
